sensor_id;sensor_type;location;lat;lon;timestamp;P1;durP1;ratioP1;P2;durP2;ratioP2
27303;SDS011;14791;52.392;13.092;2022-08-19T00:00:11;5.25;;;5.10;;
27303;SDS011;14791;52.392;13.092;2022-08-19T00:02:42;4.97;;;4.78;;
27303;SDS011;14791;52.392;13.092;2022-08-19T00:05:13;4.47;;;4.37;;
27303;SDS011;14791;52.392;13.092;2022-08-19T00:07:42;4.72;;;4.55;;
27303;SDS011;14791;52.392;13.092;2022-08-19T00:10:12;4.80;;;4.60;;
27303;SDS011;14791;52.392;13.092;2022-08-19T00:12:43;4.83;;;4.62;;
27303;SDS011;14791;52.392;13.092;2022-08-19T00:15:13;4.80;;;4.70;;
27303;SDS011;14791;52.392;13.092;2022-08-19T00:17:44;4.92;;;4.62;;
27303;SDS011;14791;52.392;13.092;2022-08-19T00:20:16;4.85;;;4.65;;
27303;SDS011;14791;52.392;13.092;2022-08-19T00:22:46;4.85;;;4.75;;
27303;SDS011;14791;52.392;13.092;2022-08-19T00:25:16;4.47;;;4.37;;
27303;SDS011;14791;52.392;13.092;2022-08-19T00:27:45;4.87;;;4.67;;
27303;SDS011;14791;52.392;13.092;2022-08-19T00:30:14;4.00;;;3.90;;
27303;SDS011;14791;52.392;13.092;2022-08-19T00:32:43;4.70;;;4.50;;
27303;SDS011;14791;52.392;13.092;2022-08-19T00:35:12;5.00;;;4.80;;
27303;SDS011;14791;52.392;13.092;2022-08-19T00:37:41;4.30;;;4.20;;
27303;SDS011;14791;52.392;13.092;2022-08-19T00:40:11;4.75;;;4.55;;
27303;SDS011;14791;52.392;13.092;2022-08-19T00:42:41;4.97;;;4.78;;
27303;SDS011;14791;52.392;13.092;2022-08-19T00:45:14;4.83;;;4.72;;
27303;SDS011;14791;52.392;13.092;2022-08-19T00:47:44;4.65;;;4.55;;
27303;SDS011;14791;52.392;13.092;2022-08-19T00:50:14;4.50;;;4.40;;
27303;SDS011;14791;52.392;13.092;2022-08-19T00:52:46;4.80;;;4.70;;
27303;SDS011;14791;52.392;13.092;2022-08-19T00:55:21;4.22;;;4.12;;
27303;SDS011;14791;52.392;13.092;2022-08-19T00:57:56;4.65;;;4.55;;
27303;SDS011;14791;52.392;13.092;2022-08-19T01:00:36;5.87;;;4.40;;
27303;SDS011;14791;52.392;13.092;2022-08-19T01:03:06;4.90;;;4.70;;
27303;SDS011;14791;52.392;13.092;2022-08-19T01:05:37;4.85;;;4.62;;
27303;SDS011;14791;52.392;13.092;2022-08-19T01:08:08;4.70;;;4.60;;
27303;SDS011;14791;52.392;13.092;2022-08-19T01:10:39;5.40;;;5.25;;
27303;SDS011;14791;52.392;13.092;2022-08-19T01:13:09;5.20;;;5.08;;
27303;SDS011;14791;52.392;13.092;2022-08-19T01:15:44;5.60;;;5.33;;
27303;SDS011;14791;52.392;13.092;2022-08-19T01:18:15;6.30;;;6.10;;
27303;SDS011;14791;52.392;13.092;2022-08-19T01:20:46;9.33;;;5.95;;
27303;SDS011;14791;52.392;13.092;2022-08-19T01:23:15;6.62;;;6.22;;
27303;SDS011;14791;52.392;13.092;2022-08-19T01:25:47;6.00;;;5.72;;
27303;SDS011;14791;52.392;13.092;2022-08-19T01:28:23;7.25;;;6.83;;
27303;SDS011;14791;52.392;13.092;2022-08-19T01:30:55;6.50;;;6.30;;
27303;SDS011;14791;52.392;13.092;2022-08-19T01:33:23;7.30;;;7.08;;
27303;SDS011;14791;52.392;13.092;2022-08-19T01:35:52;7.28;;;6.97;;
27303;SDS011;14791;52.392;13.092;2022-08-19T01:38:23;6.75;;;6.35;;
27303;SDS011;14791;52.392;13.092;2022-08-19T01:40:55;6.30;;;5.90;;
27303;SDS011;14791;52.392;13.092;2022-08-19T01:43:24;7.45;;;7.15;;
27303;SDS011;14791;52.392;13.092;2022-08-19T01:45:53;7.03;;;6.62;;
27303;SDS011;14791;52.392;13.092;2022-08-19T01:48:23;6.80;;;6.50;;
27303;SDS011;14791;52.392;13.092;2022-08-19T01:50:52;5.75;;;5.50;;
27303;SDS011;14791;52.392;13.092;2022-08-19T01:53:21;6.62;;;6.22;;
27303;SDS011;14791;52.392;13.092;2022-08-19T01:55:50;6.62;;;6.42;;
27303;SDS011;14791;52.392;13.092;2022-08-19T01:58:20;6.25;;;5.95;;
27303;SDS011;14791;52.392;13.092;2022-08-19T02:00:51;6.33;;;6.12;;
27303;SDS011;14791;52.392;13.092;2022-08-19T02:03:21;6.75;;;6.25;;
27303;SDS011;14791;52.392;13.092;2022-08-19T02:05:54;6.50;;;6.30;;
27303;SDS011;14791;52.392;13.092;2022-08-19T02:08:26;5.95;;;5.75;;
27303;SDS011;14791;52.392;13.092;2022-08-19T02:10:55;5.83;;;5.62;;
27303;SDS011;14791;52.392;13.092;2022-08-19T02:13:25;6.78;;;6.58;;
27303;SDS011;14791;52.392;13.092;2022-08-19T02:15:54;7.17;;;6.60;;
27303;SDS011;14791;52.392;13.092;2022-08-19T02:18:24;6.75;;;6.55;;
27303;SDS011;14791;52.392;13.092;2022-08-19T02:20:53;6.75;;;6.45;;
27303;SDS011;14791;52.392;13.092;2022-08-19T02:23:22;6.83;;;6.62;;
27303;SDS011;14791;52.392;13.092;2022-08-19T02:25:51;6.95;;;6.62;;
27303;SDS011;14791;52.392;13.092;2022-08-19T02:28:20;6.85;;;6.65;;
27303;SDS011;14791;52.392;13.092;2022-08-19T02:30:49;7.30;;;7.00;;
27303;SDS011;14791;52.392;13.092;2022-08-19T02:33:18;6.53;;;6.12;;
27303;SDS011;14791;52.392;13.092;2022-08-19T02:35:47;7.08;;;6.87;;
27303;SDS011;14791;52.392;13.092;2022-08-19T02:38:15;7.08;;;6.58;;
27303;SDS011;14791;52.392;13.092;2022-08-19T02:40:56;6.58;;;6.28;;
27303;SDS011;14791;52.392;13.092;2022-08-19T02:43:25;6.92;;;6.40;;
27303;SDS011;14791;52.392;13.092;2022-08-19T02:45:55;6.85;;;6.55;;
27303;SDS011;14791;52.392;13.092;2022-08-19T02:48:24;5.87;;;5.67;;
27303;SDS011;14791;52.392;13.092;2022-08-19T02:50:53;6.47;;;6.30;;
27303;SDS011;14791;52.392;13.092;2022-08-19T02:53:24;6.85;;;6.60;;
27303;SDS011;14791;52.392;13.092;2022-08-19T02:55:55;7.10;;;6.80;;
27303;SDS011;14791;52.392;13.092;2022-08-19T02:58:24;6.95;;;6.75;;
27303;SDS011;14791;52.392;13.092;2022-08-19T03:00:54;7.15;;;6.95;;
27303;SDS011;14791;52.392;13.092;2022-08-19T03:03:24;5.78;;;5.67;;
27303;SDS011;14791;52.392;13.092;2022-08-19T03:06:03;7.45;;;7.15;;
27303;SDS011;14791;52.392;13.092;2022-08-19T03:08:33;6.95;;;6.67;;
27303;SDS011;14791;52.392;13.092;2022-08-19T03:11:03;6.60;;;6.33;;
27303;SDS011;14791;52.392;13.092;2022-08-19T03:13:32;7.30;;;7.00;;
27303;SDS011;14791;52.392;13.092;2022-08-19T03:16:04;6.53;;;6.33;;
27303;SDS011;14791;52.392;13.092;2022-08-19T03:18:33;6.70;;;6.50;;
27303;SDS011;14791;52.392;13.092;2022-08-19T03:21:02;6.47;;;6.28;;
27303;SDS011;14791;52.392;13.092;2022-08-19T03:23:32;7.15;;;6.85;;
27303;SDS011;14791;52.392;13.092;2022-08-19T03:26:03;6.12;;;5.92;;
27303;SDS011;14791;52.392;13.092;2022-08-19T03:28:33;7.47;;;7.17;;
27303;SDS011;14791;52.392;13.092;2022-08-19T03:31:10;7.12;;;6.92;;
27303;SDS011;14791;52.392;13.092;2022-08-19T03:33:36;6.30;;;6.10;;
27303;SDS011;14791;52.392;13.092;2022-08-19T03:36:08;7.30;;;7.00;;
27303;SDS011;14791;52.392;13.092;2022-08-19T03:38:47;6.62;;;6.33;;
27303;SDS011;14791;52.392;13.092;2022-08-19T03:41:15;6.70;;;6.40;;
27303;SDS011;14791;52.392;13.092;2022-08-19T03:43:48;6.92;;;6.72;;
27303;SDS011;14791;52.392;13.092;2022-08-19T03:46:26;7.00;;;6.80;;
27303;SDS011;14791;52.392;13.092;2022-08-19T03:48:58;7.10;;;6.90;;
27303;SDS011;14791;52.392;13.092;2022-08-19T03:51:31;6.97;;;6.78;;
27303;SDS011;14791;52.392;13.092;2022-08-19T03:54:03;7.22;;;7.00;;
27303;SDS011;14791;52.392;13.092;2022-08-19T03:56:36;6.65;;;6.42;;
27303;SDS011;14791;52.392;13.092;2022-08-19T03:59:15;6.37;;;6.17;;
27303;SDS011;14791;52.392;13.092;2022-08-19T04:01:40;6.95;;;6.75;;
27303;SDS011;14791;52.392;13.092;2022-08-19T04:04:09;7.00;;;6.78;;
27303;SDS011;14791;52.392;13.092;2022-08-19T04:06:38;6.78;;;6.58;;
27303;SDS011;14791;52.392;13.092;2022-08-19T04:09:08;7.15;;;6.90;;
27303;SDS011;14791;52.392;13.092;2022-08-19T04:11:39;7.45;;;7.17;;
27303;SDS011;14791;52.392;13.092;2022-08-19T04:14:11;7.65;;;7.35;;
27303;SDS011;14791;52.392;13.092;2022-08-19T04:16:42;7.37;;;6.97;;
27303;SDS011;14791;52.392;13.092;2022-08-19T04:19:12;6.90;;;6.67;;
27303;SDS011;14791;52.392;13.092;2022-08-19T04:21:47;7.28;;;6.97;;
27303;SDS011;14791;52.392;13.092;2022-08-19T04:24:17;7.65;;;7.35;;
27303;SDS011;14791;52.392;13.092;2022-08-19T04:26:47;7.65;;;7.40;;
27303;SDS011;14791;52.392;13.092;2022-08-19T04:29:18;7.87;;;7.58;;
27303;SDS011;14791;52.392;13.092;2022-08-19T04:31:51;7.37;;;7.08;;
27303;SDS011;14791;52.392;13.092;2022-08-19T04:34:23;6.92;;;6.72;;
27303;SDS011;14791;52.392;13.092;2022-08-19T04:36:56;7.58;;;7.28;;
27303;SDS011;14791;52.392;13.092;2022-08-19T04:39:27;7.17;;;6.72;;
27303;SDS011;14791;52.392;13.092;2022-08-19T04:42:16;6.55;;;6.35;;
27303;SDS011;14791;52.392;13.092;2022-08-19T04:45:06;6.97;;;6.60;;
27303;SDS011;14791;52.392;13.092;2022-08-19T04:47:42;6.90;;;6.58;;
27303;SDS011;14791;52.392;13.092;2022-08-19T04:50:12;6.62;;;6.42;;
27303;SDS011;14791;52.392;13.092;2022-08-19T04:52:41;6.40;;;6.17;;
27303;SDS011;14791;52.392;13.092;2022-08-19T04:55:10;6.60;;;6.40;;
27303;SDS011;14791;52.392;13.092;2022-08-19T04:57:40;6.80;;;6.50;;
27303;SDS011;14791;52.392;13.092;2022-08-19T05:00:09;5.80;;;5.60;;
27303;SDS011;14791;52.392;13.092;2022-08-19T05:02:38;5.70;;;5.60;;
27303;SDS011;14791;52.392;13.092;2022-08-19T05:05:07;5.97;;;5.80;;
27303;SDS011;14791;52.392;13.092;2022-08-19T05:07:37;5.83;;;5.70;;
27303;SDS011;14791;52.392;13.092;2022-08-19T05:10:08;5.50;;;5.40;;
27303;SDS011;14791;52.392;13.092;2022-08-19T05:12:38;5.70;;;5.50;;
27303;SDS011;14791;52.392;13.092;2022-08-19T05:15:07;5.62;;;5.40;;
27303;SDS011;14791;52.392;13.092;2022-08-19T05:17:36;5.90;;;5.70;;
27303;SDS011;14791;52.392;13.092;2022-08-19T05:20:07;6.30;;;6.10;;
27303;SDS011;14791;52.392;13.092;2022-08-19T05:22:55;5.83;;;5.62;;
27303;SDS011;14791;52.392;13.092;2022-08-19T05:25:24;5.65;;;5.45;;
27303;SDS011;14791;52.392;13.092;2022-08-19T05:27:53;6.05;;;5.85;;
27303;SDS011;14791;52.392;13.092;2022-08-19T05:30:22;6.30;;;6.10;;
27303;SDS011;14791;52.392;13.092;2022-08-19T05:32:51;6.50;;;6.30;;
27303;SDS011;14791;52.392;13.092;2022-08-19T05:35:21;5.90;;;5.80;;
27303;SDS011;14791;52.392;13.092;2022-08-19T05:37:51;6.40;;;6.20;;
27303;SDS011;14791;52.392;13.092;2022-08-19T05:40:21;6.30;;;6.10;;
27303;SDS011;14791;52.392;13.092;2022-08-19T05:42:50;6.17;;;5.97;;
27303;SDS011;14791;52.392;13.092;2022-08-19T05:45:20;6.55;;;6.33;;
27303;SDS011;14791;52.392;13.092;2022-08-19T05:47:49;6.03;;;5.92;;
27303;SDS011;14791;52.392;13.092;2022-08-19T05:50:18;6.05;;;5.85;;
27303;SDS011;14791;52.392;13.092;2022-08-19T05:52:47;6.25;;;6.05;;
27303;SDS011;14791;52.392;13.092;2022-08-19T05:55:15;5.62;;;5.42;;
27303;SDS011;14791;52.392;13.092;2022-08-19T05:57:46;7.10;;;6.90;;
27303;SDS011;14791;52.392;13.092;2022-08-19T06:00:15;6.80;;;6.37;;
27303;SDS011;14791;52.392;13.092;2022-08-19T06:02:44;6.30;;;6.10;;
27303;SDS011;14791;52.392;13.092;2022-08-19T06:05:13;6.33;;;6.12;;
27303;SDS011;14791;52.392;13.092;2022-08-19T06:07:42;6.15;;;5.95;;
27303;SDS011;14791;52.392;13.092;2022-08-19T06:10:11;6.58;;;6.37;;
27303;SDS011;14791;52.392;13.092;2022-08-19T06:12:40;6.83;;;6.60;;
27303;SDS011;14791;52.392;13.092;2022-08-19T06:15:10;6.20;;;6.00;;
27303;SDS011;14791;52.392;13.092;2022-08-19T06:17:41;6.12;;;5.92;;
27303;SDS011;14791;52.392;13.092;2022-08-19T06:20:12;7.33;;;6.87;;
27303;SDS011;14791;52.392;13.092;2022-08-19T06:22:45;6.35;;;6.22;;
27303;SDS011;14791;52.392;13.092;2022-08-19T06:25:17;6.90;;;6.60;;
27303;SDS011;14791;52.392;13.092;2022-08-19T06:27:46;7.53;;;7.22;;
27303;SDS011;14791;52.392;13.092;2022-08-19T06:30:15;7.25;;;7.00;;
27303;SDS011;14791;52.392;13.092;2022-08-19T06:32:44;7.45;;;7.15;;
27303;SDS011;14791;52.392;13.092;2022-08-19T06:35:13;6.45;;;6.25;;
27303;SDS011;14791;52.392;13.092;2022-08-19T06:37:42;7.15;;;6.85;;
27303;SDS011;14791;52.392;13.092;2022-08-19T06:40:11;6.70;;;6.50;;
27303;SDS011;14791;52.392;13.092;2022-08-19T06:42:40;7.33;;;7.08;;
27303;SDS011;14791;52.392;13.092;2022-08-19T06:45:09;6.53;;;6.25;;
27303;SDS011;14791;52.392;13.092;2022-08-19T06:47:38;7.15;;;6.95;;
27303;SDS011;14791;52.392;13.092;2022-08-19T06:50:09;6.65;;;6.45;;
27303;SDS011;14791;52.392;13.092;2022-08-19T06:52:38;6.37;;;6.22;;
27303;SDS011;14791;52.392;13.092;2022-08-19T06:55:07;6.40;;;6.12;;
27303;SDS011;14791;52.392;13.092;2022-08-19T06:57:36;6.15;;;5.95;;
27303;SDS011;14791;52.392;13.092;2022-08-19T07:00:06;6.72;;;6.53;;
27303;SDS011;14791;52.392;13.092;2022-08-19T07:02:37;6.90;;;6.70;;
27303;SDS011;14791;52.392;13.092;2022-08-19T07:05:06;6.17;;;5.97;;
27303;SDS011;14791;52.392;13.092;2022-08-19T07:07:35;6.62;;;6.42;;
27303;SDS011;14791;52.392;13.092;2022-08-19T07:10:05;6.80;;;6.60;;
27303;SDS011;14791;52.392;13.092;2022-08-19T07:12:34;7.42;;;7.03;;
27303;SDS011;14791;52.392;13.092;2022-08-19T07:15:04;6.30;;;6.10;;
27303;SDS011;14791;52.392;13.092;2022-08-19T07:17:35;7.25;;;6.92;;
27303;SDS011;14791;52.392;13.092;2022-08-19T07:20:06;6.42;;;6.25;;
27303;SDS011;14791;52.392;13.092;2022-08-19T07:22:36;6.97;;;6.78;;
27303;SDS011;14791;52.392;13.092;2022-08-19T07:25:08;7.00;;;6.70;;
27303;SDS011;14791;52.392;13.092;2022-08-19T07:27:36;7.42;;;7.20;;
27303;SDS011;14791;52.392;13.092;2022-08-19T07:30:06;6.78;;;6.58;;
27303;SDS011;14791;52.392;13.092;2022-08-19T07:32:37;7.50;;;7.22;;
27303;SDS011;14791;52.392;13.092;2022-08-19T07:35:06;7.80;;;7.15;;
27303;SDS011;14791;52.392;13.092;2022-08-19T07:37:36;7.70;;;7.33;;
27303;SDS011;14791;52.392;13.092;2022-08-19T07:40:07;7.33;;;7.12;;
27303;SDS011;14791;52.392;13.092;2022-08-19T07:42:36;6.10;;;5.90;;
27303;SDS011;14791;52.392;13.092;2022-08-19T07:45:05;8.35;;;7.80;;
27303;SDS011;14791;52.392;13.092;2022-08-19T07:47:35;7.87;;;7.67;;
27303;SDS011;14791;52.392;13.092;2022-08-19T07:50:06;7.60;;;7.30;;
27303;SDS011;14791;52.392;13.092;2022-08-19T07:52:36;7.95;;;7.65;;
27303;SDS011;14791;52.392;13.092;2022-08-19T07:55:07;7.65;;;7.35;;
27303;SDS011;14791;52.392;13.092;2022-08-19T07:57:37;7.87;;;7.58;;
27303;SDS011;14791;52.392;13.092;2022-08-19T08:00:06;6.83;;;6.53;;
27303;SDS011;14791;52.392;13.092;2022-08-19T08:02:37;7.50;;;7.20;;
27303;SDS011;14791;52.392;13.092;2022-08-19T08:05:09;8.25;;;7.95;;
27303;SDS011;14791;52.392;13.092;2022-08-19T08:07:56;7.17;;;6.97;;
27303;SDS011;14791;52.392;13.092;2022-08-19T08:10:43;7.30;;;7.10;;
27303;SDS011;14791;52.392;13.092;2022-08-19T08:13:12;7.95;;;7.65;;
27303;SDS011;14791;52.392;13.092;2022-08-19T08:15:41;7.83;;;7.42;;
27303;SDS011;14791;52.392;13.092;2022-08-19T08:18:11;8.00;;;7.70;;
27303;SDS011;14791;52.392;13.092;2022-08-19T08:20:40;7.55;;;7.35;;
27303;SDS011;14791;52.392;13.092;2022-08-19T08:23:09;7.83;;;7.45;;
27303;SDS011;14791;52.392;13.092;2022-08-19T08:25:53;8.38;;;8.08;;
27303;SDS011;14791;52.392;13.092;2022-08-19T08:28:25;8.08;;;7.75;;
27303;SDS011;14791;52.392;13.092;2022-08-19T08:30:55;7.75;;;7.45;;
27303;SDS011;14791;52.392;13.092;2022-08-19T08:33:27;7.58;;;7.22;;
27303;SDS011;14791;52.392;13.092;2022-08-19T08:35:57;7.97;;;7.78;;
27303;SDS011;14791;52.392;13.092;2022-08-19T08:38:25;8.48;;;8.28;;
27303;SDS011;14791;52.392;13.092;2022-08-19T08:41:00;9.73;;;9.33;;
27303;SDS011;14791;52.392;13.092;2022-08-19T08:43:33;9.43;;;9.10;;
27303;SDS011;14791;52.392;13.092;2022-08-19T08:46:05;10.43;;;10.03;;
27303;SDS011;14791;52.392;13.092;2022-08-19T08:48:41;9.33;;;9.03;;
27303;SDS011;14791;52.392;13.092;2022-08-19T08:51:18;8.78;;;8.48;;
27303;SDS011;14791;52.392;13.092;2022-08-19T08:53:46;8.15;;;7.95;;
27303;SDS011;14791;52.392;13.092;2022-08-19T08:56:18;9.23;;;8.73;;
27303;SDS011;14791;52.392;13.092;2022-08-19T09:01:19;9.33;;;9.03;;
27303;SDS011;14791;52.392;13.092;2022-08-19T09:03:49;10.10;;;9.70;;
27303;SDS011;14791;52.392;13.092;2022-08-19T09:09:18;10.03;;;9.63;;
27303;SDS011;14791;52.392;13.092;2022-08-19T09:11:56;9.60;;;9.20;;
27303;SDS011;14791;52.392;13.092;2022-08-19T09:14:37;10.15;;;9.68;;
27303;SDS011;14791;52.392;13.092;2022-08-19T09:17:24;8.80;;;8.48;;
27303;SDS011;14791;52.392;13.092;2022-08-19T09:20:00;9.88;;;9.45;;
27303;SDS011;14791;52.392;13.092;2022-08-19T09:22:33;10.43;;;10.00;;
27303;SDS011;14791;52.392;13.092;2022-08-19T09:25:03;9.75;;;9.35;;
27303;SDS011;14791;52.392;13.092;2022-08-19T09:27:35;9.20;;;8.90;;
27303;SDS011;14791;52.392;13.092;2022-08-19T09:30:06;9.35;;;9.00;;
27303;SDS011;14791;52.392;13.092;2022-08-19T09:32:39;10.08;;;9.55;;
27303;SDS011;14791;52.392;13.092;2022-08-19T09:35:09;8.78;;;8.40;;
27303;SDS011;14791;52.392;13.092;2022-08-19T09:37:39;10.93;;;10.43;;
27303;SDS011;14791;52.392;13.092;2022-08-19T09:40:10;11.53;;;11.03;;
27303;SDS011;14791;52.392;13.092;2022-08-19T09:42:40;11.48;;;11.03;;
27303;SDS011;14791;52.392;13.092;2022-08-19T09:45:10;11.12;;;10.63;;
27303;SDS011;14791;52.392;13.092;2022-08-19T09:47:39;11.40;;;10.90;;
27303;SDS011;14791;52.392;13.092;2022-08-19T09:50:09;10.75;;;10.32;;
27303;SDS011;14791;52.392;13.092;2022-08-19T09:52:39;12.20;;;11.60;;
27303;SDS011;14791;52.392;13.092;2022-08-19T09:55:09;12.03;;;11.53;;
27303;SDS011;14791;52.392;13.092;2022-08-19T09:57:38;11.97;;;11.48;;
27303;SDS011;14791;52.392;13.092;2022-08-19T10:00:08;12.25;;;11.65;;
27303;SDS011;14791;52.392;13.092;2022-08-19T10:02:37;12.13;;;11.53;;
27303;SDS011;14791;52.392;13.092;2022-08-19T10:05:06;11.95;;;11.22;;
27303;SDS011;14791;52.392;13.092;2022-08-19T10:07:53;12.53;;;11.83;;
27303;SDS011;14791;52.392;13.092;2022-08-19T10:10:22;13.48;;;12.68;;
27303;SDS011;14791;52.392;13.092;2022-08-19T10:12:51;13.75;;;13.00;;
27303;SDS011;14791;52.392;13.092;2022-08-19T10:15:21;13.75;;;12.95;;
27303;SDS011;14791;52.392;13.092;2022-08-19T10:17:50;13.10;;;12.47;;
27303;SDS011;14791;52.392;13.092;2022-08-19T10:20:19;13.95;;;13.25;;
27303;SDS011;14791;52.392;13.092;2022-08-19T10:22:49;13.45;;;12.65;;
27303;SDS011;14791;52.392;13.092;2022-08-19T10:25:18;12.60;;;11.97;;
27303;SDS011;14791;52.392;13.092;2022-08-19T10:27:47;13.30;;;12.58;;
27303;SDS011;14791;52.392;13.092;2022-08-19T10:30:16;13.05;;;12.25;;
27303;SDS011;14791;52.392;13.092;2022-08-19T10:32:45;13.35;;;12.68;;
27303;SDS011;14791;52.392;13.092;2022-08-19T10:35:14;14.33;;;13.25;;
27303;SDS011;14791;52.392;13.092;2022-08-19T10:37:44;13.90;;;13.10;;
27303;SDS011;14791;52.392;13.092;2022-08-19T10:40:13;12.78;;;12.18;;
27303;SDS011;14791;52.392;13.092;2022-08-19T10:42:41;13.65;;;12.95;;
27303;SDS011;14791;52.392;13.092;2022-08-19T10:45:11;13.58;;;12.78;;
27303;SDS011;14791;52.392;13.092;2022-08-19T10:47:40;12.90;;;12.07;;
27303;SDS011;14791;52.392;13.092;2022-08-19T10:50:09;14.13;;;13.38;;
27303;SDS011;14791;52.392;13.092;2022-08-19T10:52:56;13.85;;;13.18;;
27303;SDS011;14791;52.392;13.092;2022-08-19T10:55:25;14.00;;;13.20;;
27303;SDS011;14791;52.392;13.092;2022-08-19T10:58:17;14.07;;;13.38;;
27303;SDS011;14791;52.392;13.092;2022-08-19T11:00:50;14.33;;;13.32;;
27303;SDS011;14791;52.392;13.092;2022-08-19T11:03:15;14.30;;;13.50;;
27303;SDS011;14791;52.392;13.092;2022-08-19T11:05:45;14.28;;;13.40;;
27303;SDS011;14791;52.392;13.092;2022-08-19T11:08:15;13.72;;;12.98;;
27303;SDS011;14791;52.392;13.092;2022-08-19T11:10:44;14.58;;;13.72;;
27303;SDS011;14791;52.392;13.092;2022-08-19T11:13:13;13.85;;;13.15;;
27303;SDS011;14791;52.392;13.092;2022-08-19T11:15:42;13.25;;;12.45;;
27303;SDS011;14791;52.392;13.092;2022-08-19T11:18:13;13.53;;;12.73;;
27303;SDS011;14791;52.392;13.092;2022-08-19T11:20:43;13.62;;;12.85;;
27303;SDS011;14791;52.392;13.092;2022-08-19T11:23:12;13.20;;;12.53;;
27303;SDS011;14791;52.392;13.092;2022-08-19T11:25:41;14.20;;;13.30;;
27303;SDS011;14791;52.392;13.092;2022-08-19T11:28:10;13.70;;;12.93;;
27303;SDS011;14791;52.392;13.092;2022-08-19T11:30:39;13.80;;;13.10;;
27303;SDS011;14791;52.392;13.092;2022-08-19T11:33:08;13.22;;;12.53;;
27303;SDS011;14791;52.392;13.092;2022-08-19T11:35:39;14.00;;;13.00;;
27303;SDS011;14791;52.392;13.092;2022-08-19T11:38:08;13.78;;;12.78;;
27303;SDS011;14791;52.392;13.092;2022-08-19T11:40:38;12.40;;;11.75;;
27303;SDS011;14791;52.392;13.092;2022-08-19T11:43:08;13.72;;;13.00;;
27303;SDS011;14791;52.392;13.092;2022-08-19T11:45:37;13.80;;;12.95;;
27303;SDS011;14791;52.392;13.092;2022-08-19T11:48:06;13.70;;;12.98;;
27303;SDS011;14791;52.392;13.092;2022-08-19T11:50:35;13.25;;;12.55;;
27303;SDS011;14791;52.392;13.092;2022-08-19T11:53:06;13.13;;;12.33;;
27303;SDS011;14791;52.392;13.092;2022-08-19T11:55:36;13.80;;;13.00;;
27303;SDS011;14791;52.392;13.092;2022-08-19T11:58:06;13.00;;;12.37;;
27303;SDS011;14791;52.392;13.092;2022-08-19T12:00:37;12.82;;;12.05;;
27303;SDS011;14791;52.392;13.092;2022-08-19T12:03:07;12.95;;;12.13;;
27303;SDS011;14791;52.392;13.092;2022-08-19T12:05:39;13.18;;;12.47;;
27303;SDS011;14791;52.392;13.092;2022-08-19T12:08:09;13.15;;;12.15;;
27303;SDS011;14791;52.392;13.092;2022-08-19T12:10:39;12.13;;;11.53;;
27303;SDS011;14791;52.392;13.092;2022-08-19T12:13:09;11.60;;;11.05;;
27303;SDS011;14791;52.392;13.092;2022-08-19T12:15:40;12.88;;;12.07;;
27303;SDS011;14791;52.392;13.092;2022-08-19T12:18:09;11.38;;;10.88;;
27303;SDS011;14791;52.392;13.092;2022-08-19T12:20:42;11.78;;;11.18;;
27303;SDS011;14791;52.392;13.092;2022-08-19T12:23:12;11.43;;;10.93;;
27303;SDS011;14791;52.392;13.092;2022-08-19T12:25:46;10.82;;;10.38;;
27303;SDS011;14791;52.392;13.092;2022-08-19T12:28:22;11.45;;;10.85;;
27303;SDS011;14791;52.392;13.092;2022-08-19T12:30:52;11.73;;;11.12;;
27303;SDS011;14791;52.392;13.092;2022-08-19T12:33:21;11.78;;;11.18;;
27303;SDS011;14791;52.392;13.092;2022-08-19T12:35:52;11.35;;;10.85;;
27303;SDS011;14791;52.392;13.092;2022-08-19T12:38:21;10.75;;;10.25;;
27303;SDS011;14791;52.392;13.092;2022-08-19T12:40:51;10.32;;;9.93;;
27303;SDS011;14791;52.392;13.092;2022-08-19T12:43:20;10.00;;;9.60;;
27303;SDS011;14791;52.392;13.092;2022-08-19T12:45:48;10.48;;;9.98;;
27303;SDS011;14791;52.392;13.092;2022-08-19T12:48:18;9.13;;;8.83;;
27303;SDS011;14791;52.392;13.092;2022-08-19T12:50:47;9.80;;;9.40;;
27303;SDS011;14791;52.392;13.092;2022-08-19T12:53:15;10.32;;;9.93;;
27303;SDS011;14791;52.392;13.092;2022-08-19T12:55:44;9.33;;;9.03;;
27303;SDS011;14791;52.392;13.092;2022-08-19T12:58:14;10.98;;;10.38;;
27303;SDS011;14791;52.392;13.092;2022-08-19T13:00:44;9.90;;;9.50;;
27303;SDS011;14791;52.392;13.092;2022-08-19T13:03:13;9.40;;;9.05;;
27303;SDS011;14791;52.392;13.092;2022-08-19T13:05:42;9.65;;;9.25;;
27303;SDS011;14791;52.392;13.092;2022-08-19T13:08:11;9.45;;;9.08;;
27303;SDS011;14791;52.392;13.092;2022-08-19T13:10:40;8.93;;;8.63;;
27303;SDS011;14791;52.392;13.092;2022-08-19T13:13:09;8.98;;;8.60;;
27303;SDS011;14791;52.392;13.092;2022-08-19T13:15:39;9.88;;;9.43;;
27303;SDS011;14791;52.392;13.092;2022-08-19T13:18:11;8.85;;;8.55;;
27303;SDS011;14791;52.392;13.092;2022-08-19T13:20:42;7.90;;;7.60;;
27303;SDS011;14791;52.392;13.092;2022-08-19T13:23:11;8.13;;;7.67;;
27303;SDS011;14791;52.392;13.092;2022-08-19T13:25:39;9.05;;;8.58;;
27303;SDS011;14791;52.392;13.092;2022-08-19T13:28:08;8.48;;;8.08;;
27303;SDS011;14791;52.392;13.092;2022-08-19T13:30:37;8.38;;;8.08;;
27303;SDS011;14791;52.392;13.092;2022-08-19T13:33:24;8.28;;;7.95;;
27303;SDS011;14791;52.392;13.092;2022-08-19T13:35:56;8.08;;;7.78;;
27303;SDS011;14791;52.392;13.092;2022-08-19T13:38:27;8.03;;;7.72;;
27303;SDS011;14791;52.392;13.092;2022-08-19T13:40:57;8.03;;;7.72;;
27303;SDS011;14791;52.392;13.092;2022-08-19T13:43:29;8.25;;;7.95;;
27303;SDS011;14791;52.392;13.092;2022-08-19T13:45:58;8.05;;;7.65;;
27303;SDS011;14791;52.392;13.092;2022-08-19T13:48:27;8.00;;;7.70;;
27303;SDS011;14791;52.392;13.092;2022-08-19T13:50:56;7.53;;;7.22;;
27303;SDS011;14791;52.392;13.092;2022-08-19T13:53:25;8.43;;;8.08;;
27303;SDS011;14791;52.392;13.092;2022-08-19T13:55:54;7.03;;;6.83;;
27303;SDS011;14791;52.392;13.092;2022-08-19T13:58:24;7.87;;;7.67;;
27303;SDS011;14791;52.392;13.092;2022-08-19T14:00:53;7.95;;;7.65;;
27303;SDS011;14791;52.392;13.092;2022-08-19T14:03:22;8.20;;;7.90;;
27303;SDS011;14791;52.392;13.092;2022-08-19T14:05:50;7.53;;;7.33;;
27303;SDS011;14791;52.392;13.092;2022-08-19T14:08:19;7.25;;;7.05;;
27303;SDS011;14791;52.392;13.092;2022-08-19T14:10:48;8.38;;;8.03;;
27303;SDS011;14791;52.392;13.092;2022-08-19T14:13:18;7.25;;;7.05;;
27303;SDS011;14791;52.392;13.092;2022-08-19T14:15:48;8.23;;;7.92;;
27303;SDS011;14791;52.392;13.092;2022-08-19T14:18:19;7.45;;;7.25;;
27303;SDS011;14791;52.392;13.092;2022-08-19T14:20:48;7.40;;;6.92;;
27303;SDS011;14791;52.392;13.092;2022-08-19T14:23:17;7.33;;;7.12;;
27303;SDS011;14791;52.392;13.092;2022-08-19T14:25:46;7.20;;;7.00;;
27303;SDS011;14791;52.392;13.092;2022-08-19T14:28:15;7.37;;;7.17;;
27303;SDS011;14791;52.392;13.092;2022-08-19T14:30:44;8.05;;;7.75;;
27303;SDS011;14791;52.392;13.092;2022-08-19T14:33:13;7.33;;;7.12;;
27303;SDS011;14791;52.392;13.092;2022-08-19T14:35:42;6.65;;;6.45;;
27303;SDS011;14791;52.392;13.092;2022-08-19T14:38:14;7.55;;;7.35;;
27303;SDS011;14791;52.392;13.092;2022-08-19T14:40:46;7.37;;;7.17;;
27303;SDS011;14791;52.392;13.092;2022-08-19T14:43:15;7.25;;;6.97;;
27303;SDS011;14791;52.392;13.092;2022-08-19T14:45:45;7.33;;;7.05;;
27303;SDS011;14791;52.392;13.092;2022-08-19T14:48:14;6.92;;;6.62;;
27303;SDS011;14791;52.392;13.092;2022-08-19T14:50:43;7.00;;;6.75;;
27303;SDS011;14791;52.392;13.092;2022-08-19T14:53:11;6.60;;;6.45;;